createdAt,value
2019-04-23T00:01:49.315Z,5.67
2019-04-23T00:04:23.969Z,5.37
2019-04-23T00:07:13.302Z,5.30
2019-04-23T00:09:32.977Z,6.13
2019-04-23T00:12:11.770Z,5.63
2019-04-23T00:14:47.579Z,5.30
2019-04-23T00:17:24.690Z,5.60
2019-04-23T00:19:55.822Z,5.67
2019-04-23T00:22:43.801Z,6.00
2019-04-23T00:28:16.114Z,6.10
2019-04-23T00:30:50.245Z,6.27
2019-04-23T00:33:23.920Z,5.60
2019-04-23T00:35:50.388Z,6.27
2019-04-23T00:38:26.815Z,5.80
2019-04-23T00:41:01.203Z,5.53
2019-04-23T00:43:34.208Z,5.93
2019-04-23T00:46:11.385Z,5.87
2019-04-23T00:48:53.117Z,5.47
2019-04-23T00:51:16.746Z,5.87
2019-04-23T00:54:09.143Z,7.10
2019-04-23T01:01:38.890Z,6.30
2019-04-23T01:04:15.071Z,6.20
2019-04-23T01:06:41.453Z,7.70
2019-04-23T01:09:14.147Z,6.93
2019-04-23T01:14:22.984Z,7.23
2019-04-23T01:16:55.019Z,6.37
2019-04-23T01:19:49.848Z,6.87
2019-04-23T01:22:02.343Z,7.20
2019-04-23T01:24:48.185Z,5.70
2019-04-23T01:27:51.135Z,7.10
2019-04-23T01:30:19.669Z,6.97
2019-04-23T01:32:54.743Z,6.53
2019-04-23T01:35:29.101Z,6.37
2019-04-23T01:37:58.416Z,6.70
2019-04-23T01:40:36.548Z,6.33
2019-04-23T01:43:10.709Z,6.00
2019-04-23T01:45:34.201Z,7.37
2019-04-23T01:48:21.894Z,6.13
2019-04-23T01:50:55.057Z,6.77
2019-04-23T01:53:37.386Z,6.23
2019-04-23T01:56:03.038Z,8.13
2019-04-23T02:01:09.859Z,7.30
2019-04-23T02:03:43.637Z,7.37
2019-04-23T02:08:56.830Z,6.57
2019-04-23T02:11:17.520Z,6.97
2019-04-23T02:19:11.542Z,6.63
2019-04-23T02:21:47.259Z,6.90
2019-04-23T02:24:22.880Z,6.67
2019-04-23T02:26:48.569Z,7.13
2019-04-23T02:29:36.551Z,6.90
2019-04-23T02:32:19.102Z,6.83
2019-04-23T02:40:11.341Z,6.73
2019-04-23T02:42:50.012Z,9.93
2019-04-23T02:44:56.157Z,7.40
2019-04-23T02:47:32.621Z,7.30
2019-04-23T02:52:43.072Z,7.10
2019-04-23T02:57:41.516Z,6.90
2019-04-23T03:00:28.785Z,7.27
2019-04-23T03:05:32.091Z,7.57
2019-04-23T03:13:19.356Z,8.10
2019-04-23T03:16:08.466Z,8.50
2019-04-23T03:21:44.517Z,9.77
2019-04-23T03:24:34.645Z,8.60
2019-04-23T03:27:09.148Z,11.50
2019-04-23T03:37:23.270Z,9.47
2019-04-23T03:39:56.537Z,9.40
2019-04-23T03:42:23.918Z,9.70
2019-04-23T03:47:33.167Z,9.70
2019-04-23T03:52:51.049Z,8.60
2019-04-23T03:57:41.021Z,7.80
2019-04-23T04:00:35.198Z,8.30
2019-04-23T04:06:43.681Z,7.60
2019-04-23T04:08:13.731Z,8.77
2019-04-23T04:10:48.283Z,9.23
2019-04-23T04:13:15.873Z,8.87
2019-04-23T04:15:55.726Z,9.13
2019-04-23T04:18:32.654Z,8.43
2019-04-23T04:28:38.914Z,9.07
2019-04-23T04:31:10.023Z,10.70
2019-04-23T04:36:21.756Z,9.23
2019-04-23T04:38:54.298Z,8.07
2019-04-23T04:41:25.130Z,8.63
2019-04-23T04:49:10.458Z,8.77
2019-04-23T04:51:51.887Z,9.40
2019-04-23T04:56:46.926Z,8.17
2019-04-23T04:59:39.833Z,9.17
2019-04-23T05:02:01.138Z,8.47
2019-04-23T05:07:11.435Z,9.47
2019-04-23T05:14:52.536Z,8.07
2019-04-23T05:17:42.455Z,8.50
2019-04-23T05:20:14.672Z,8.17
2019-04-23T05:22:48.824Z,8.23
2019-04-23T05:25:12.610Z,8.53
2019-04-23T05:28:07.716Z,8.97
2019-04-23T05:33:04.349Z,8.53
2019-04-23T05:35:56.122Z,9.30
2019-04-23T05:40:45.283Z,8.47
2019-04-23T05:43:15.848Z,9.20
2019-04-23T05:45:48.109Z,8.80
2019-04-23T05:51:04.309Z,8.87
2019-04-23T05:53:33.844Z,8.07
2019-04-23T05:56:02.199Z,8.77
2019-04-23T05:58:38.411Z,8.73
2019-04-23T06:01:49.239Z,8.57
2019-04-23T06:11:57.109Z,8.50
2019-04-23T06:17:03.952Z,7.60
2019-04-23T06:19:44.329Z,8.60
2019-04-23T06:22:15.199Z,7.37
2019-04-23T06:24:49.070Z,8.37
2019-04-23T06:27:13.515Z,7.63
2019-04-23T06:29:43.294Z,8.23
2019-04-23T06:32:20.658Z,8.50
2019-04-23T06:34:51.192Z,9.13
2019-04-23T06:37:38.304Z,7.43
2019-04-23T06:40:03.165Z,8.83
2019-04-23T06:42:52.134Z,8.63
2019-04-23T06:45:25.682Z,8.10
2019-04-23T06:48:02.270Z,7.80
2019-04-23T06:50:34.657Z,8.27
2019-04-23T06:53:02.463Z,7.97
2019-04-23T06:55:44.543Z,8.03
2019-04-23T06:58:19.407Z,7.20
2019-04-23T07:00:48.030Z,8.17
2019-04-23T07:06:19.234Z,7.70
2019-04-23T07:08:56.260Z,7.80
2019-04-23T07:11:23.479Z,8.15
2019-04-23T07:13:55.008Z,7.40
2019-04-23T07:16:34.676Z,8.53
2019-04-23T07:19:04.400Z,8.07
2019-04-23T07:26:41.833Z,7.53
2019-04-23T07:29:08.967Z,7.80
2019-04-23T07:31:48.412Z,7.45
2019-04-23T07:34:13.684Z,7.42
2019-04-23T07:36:53.736Z,7.78
2019-04-23T07:39:57.024Z,9.48
2019-04-23T07:45:19.359Z,6.28
2019-04-23T07:50:44.193Z,8.30
2019-04-23T07:53:33.161Z,10.03
2019-04-23T07:56:00.910Z,7.95
2019-04-23T07:58:23.796Z,7.45
2019-04-23T08:00:56.979Z,7.78
2019-04-23T08:03:30.687Z,7.87
2019-04-23T08:06:00.674Z,8.55
2019-04-23T08:08:47.431Z,7.65
2019-04-23T08:21:43.840Z,8.30
2019-04-23T08:24:45.408Z,8.68
2019-04-23T08:27:34.742Z,6.58
2019-04-23T08:30:09.508Z,7.95
2019-04-23T08:32:52.360Z,7.65
2019-04-23T08:35:23.151Z,8.50
2019-04-23T08:40:35.322Z,8.13
2019-04-23T08:43:31.483Z,7.55
2019-04-23T08:46:17.240Z,7.97
2019-04-23T08:48:50.296Z,8.50
2019-04-23T08:51:38.996Z,6.83
2019-04-23T08:54:01.454Z,6.53
2019-04-23T08:56:33.391Z,6.90
2019-04-23T08:59:09.087Z,10.45
2019-04-23T09:01:49.189Z,8.15
2019-04-23T09:04:09.343Z,7.87
2019-04-23T09:06:47.896Z,6.78
2019-04-23T09:09:20.076Z,8.65
2019-04-23T09:11:54.493Z,8.40
2019-04-23T09:14:28.273Z,9.03
2019-04-23T09:17:06.128Z,6.87
2019-04-23T09:19:46.029Z,7.78
2019-04-23T09:22:14.547Z,7.35
2019-04-23T09:27:24.523Z,7.00
2019-04-23T09:30:07.016Z,6.87
2019-04-23T09:32:52.062Z,7.58
2019-04-23T09:35:33.595Z,8.90
2019-04-23T09:38:31.630Z,6.60
2019-04-23T09:44:25.925Z,7.35
2019-04-23T09:46:47.823Z,7.17
2019-04-23T09:49:20.663Z,7.30
2019-04-23T09:52:02.450Z,8.65
2019-04-23T09:56:57.040Z,10.55
2019-04-23T10:02:04.324Z,7.53
2019-04-23T10:04:27.342Z,7.92
2019-04-23T10:07:01.557Z,8.00
2019-04-23T10:09:25.817Z,7.42
2019-04-23T10:11:56.961Z,9.38
2019-04-23T10:14:30.335Z,6.80
2019-04-23T10:17:03.980Z,9.55
2019-04-23T10:19:36.952Z,9.23
2019-04-23T10:22:09.224Z,10.68
2019-04-23T10:24:41.194Z,7.53
2019-04-23T10:27:14.757Z,7.80
2019-04-23T10:29:47.852Z,7.20
2019-04-23T10:32:19.994Z,7.85
2019-04-23T10:35:04.589Z,7.25
2019-04-23T10:37:39.335Z,8.43
2019-04-23T10:40:03.522Z,7.72
2019-04-23T10:42:37.532Z,8.05
2019-04-23T10:45:47.782Z,6.83
2019-04-23T10:49:23.118Z,8.35
2019-04-23T10:51:41.259Z,8.80
2019-04-23T10:54:26.317Z,8.83
2019-04-23T11:02:29.677Z,8.33
2019-04-23T11:04:54.328Z,8.68
2019-04-23T11:10:05.568Z,7.72
2019-04-23T11:13:07.817Z,7.47
2019-04-23T11:18:02.777Z,8.33
2019-04-23T11:20:54.031Z,6.83
2019-04-23T11:23:22.465Z,8.65
2019-04-23T11:26:01.333Z,9.65
2019-04-23T11:31:12.045Z,8.93
2019-04-23T11:33:49.680Z,8.98
2019-04-23T11:36:41.117Z,5.92
2019-04-23T11:38:54.776Z,8.65
2019-04-23T11:43:55.355Z,9.33
2019-04-23T11:46:47.519Z,7.00
2019-04-23T11:52:05.609Z,8.18
2019-04-23T11:54:21.394Z,7.80
2019-04-23T11:59:31.689Z,9.10
2019-04-23T12:02:19.369Z,11.28
2019-04-23T12:05:01.019Z,9.00
2019-04-23T12:07:34.401Z,7.97
2019-04-23T12:13:03.191Z,10.53
2019-04-23T12:18:10.900Z,8.45
2019-04-23T12:20:56.795Z,7.55
2019-04-23T12:23:31.995Z,8.98
2019-04-23T12:25:52.844Z,10.35
2019-04-23T12:28:34.967Z,8.05
2019-04-23T12:30:59.310Z,9.15
2019-04-23T12:33:45.267Z,10.20
2019-04-23T12:39:18.509Z,7.42
2019-04-23T12:42:01.740Z,11.83
2019-04-23T12:44:30.619Z,7.95
2019-04-23T12:47:02.597Z,9.65
2019-04-23T12:49:59.108Z,8.78
2019-04-23T12:52:12.695Z,8.53
2019-04-23T12:54:59.130Z,10.95
2019-04-23T12:57:21.356Z,10.18
2019-04-23T12:59:51.595Z,8.78
2019-04-23T13:02:35.055Z,12.68
2019-04-23T13:05:05.062Z,10.45
2019-04-23T13:10:20.954Z,9.90
2019-04-23T13:13:04.606Z,10.45
2019-04-23T13:15:17.370Z,11.18
2019-04-23T13:20:23.187Z,9.40
2019-04-23T13:23:03.153Z,10.63
2019-04-23T13:25:57.078Z,10.00
2019-04-23T13:38:47.282Z,7.28
2019-04-23T13:44:06.066Z,6.47
2019-04-23T13:46:23.073Z,7.30
2019-04-23T13:48:55.095Z,6.22
2019-04-23T13:51:32.700Z,5.50
2019-04-23T13:57:13.976Z,7.15
2019-04-23T13:59:21.898Z,6.97
2019-04-23T14:01:46.756Z,6.55
2019-04-23T14:04:44.650Z,5.42
2019-04-23T14:07:14.903Z,6.75
2019-04-23T14:10:00.575Z,5.72
2019-04-23T14:12:23.990Z,10.32
2019-04-23T14:15:04.475Z,6.47
2019-04-23T14:17:40.880Z,5.92
2019-04-23T14:20:07.216Z,4.10
2019-04-23T14:25:12.349Z,4.70
2019-04-23T14:27:49.440Z,7.15
2019-04-23T14:30:31.402Z,7.78
2019-04-23T14:32:54.116Z,6.45
2019-04-23T14:38:17.774Z,5.28
2019-04-23T14:43:24.827Z,8.73
2019-04-23T14:46:25.019Z,6.65
2019-04-23T14:48:21.363Z,6.53
2019-04-23T14:51:11.274Z,5.75
2019-04-23T14:53:30.338Z,9.00
2019-04-23T14:56:13.111Z,7.67
2019-04-23T15:01:27.393Z,5.22
2019-04-23T15:03:46.701Z,5.08
2019-04-23T15:09:04.230Z,6.50
2019-04-23T15:14:03.533Z,5.87
2019-04-23T15:16:48.355Z,6.35
2019-04-23T15:22:04.832Z,6.40
2019-04-23T15:24:27.541Z,5.67
2019-04-23T15:28:00.775Z,6.95
2019-04-23T15:29:26.720Z,5.97
2019-04-23T15:32:13.787Z,4.00
2019-04-23T15:34:45.495Z,5.45
2019-04-23T15:37:33.579Z,6.78
2019-04-23T15:39:56.142Z,5.47
2019-04-23T15:42:26.051Z,4.90
2019-04-23T15:45:01.360Z,5.60
2019-04-23T15:47:36.095Z,5.62
2019-04-23T15:50:17.624Z,5.47
2019-04-23T15:52:49.766Z,6.55
2019-04-23T15:55:14.192Z,5.92
2019-04-23T16:00:22.433Z,4.78
2019-04-23T16:02:27.655Z,6.37
2019-04-23T16:05:00.114Z,6.62
2019-04-23T16:07:51.855Z,7.22
2019-04-23T16:10:44.868Z,5.45
2019-04-23T16:13:14.953Z,5.25
2019-04-23T16:15:45.382Z,5.83
2019-04-23T16:18:41.188Z,5.50
2019-04-23T16:21:05.035Z,5.58
2019-04-23T16:23:35.617Z,7.03
2019-04-23T16:26:14.258Z,6.33
2019-04-23T16:31:34.666Z,4.90
2019-04-23T16:34:19.470Z,7.08
2019-04-23T16:36:54.690Z,7.35
2019-04-23T16:39:22.216Z,5.33
2019-04-23T16:42:03.964Z,9.73
2019-04-23T16:44:38.300Z,6.50
2019-04-23T16:47:14.495Z,6.87
2019-04-23T16:49:44.593Z,5.37
2019-04-23T16:52:19.285Z,5.97
2019-04-23T16:57:33.230Z,7.55
2019-04-23T17:05:12.503Z,7.85
2019-04-23T17:07:39.992Z,7.37
2019-04-23T17:10:23.482Z,5.53
2019-04-23T17:12:52.931Z,5.62
2019-04-23T17:15:29.088Z,7.17
2019-04-23T17:17:56.135Z,7.85
2019-04-23T17:20:30.506Z,7.37
2019-04-23T17:23:10.199Z,8.70
2019-04-23T17:25:41.874Z,7.50
2019-04-23T17:28:20.195Z,5.50
2019-04-23T17:30:52.353Z,4.90
2019-04-23T17:33:32.773Z,6.53
2019-04-23T17:39:02.683Z,6.12
2019-04-23T17:41:38.938Z,6.30
2019-04-23T17:44:18.649Z,5.12
2019-04-23T17:49:15.206Z,5.15
2019-04-23T17:51:49.440Z,5.47
2019-04-23T17:54:26.955Z,8.03
2019-04-23T17:57:10.584Z,9.30
2019-04-23T18:00:10.003Z,6.55
2019-04-23T18:05:12.582Z,6.08
2019-04-23T18:10:24.676Z,5.78
2019-04-23T18:15:17.679Z,5.95
2019-04-23T18:18:02.307Z,7.72
2019-04-23T18:20:54.372Z,7.42
2019-04-23T18:23:15.070Z,8.40
2019-04-23T18:26:04.025Z,7.22
2019-04-23T18:28:42.279Z,6.45
2019-04-23T18:31:31.618Z,6.33
2019-04-23T18:36:26.143Z,5.80
2019-04-23T18:39:06.331Z,5.10
2019-04-23T18:41:43.045Z,7.15
2019-04-23T18:44:23.369Z,6.55
2019-04-23T18:49:28.106Z,5.37
2019-04-23T18:52:22.272Z,6.35
2019-04-23T18:54:28.529Z,5.22
2019-04-23T18:59:46.816Z,5.37
2019-04-23T19:02:45.381Z,4.87
2019-04-23T19:08:02.991Z,5.15
2019-04-23T19:10:52.254Z,5.83
2019-04-23T19:13:24.938Z,4.47
2019-04-23T19:15:50.973Z,5.03
2019-04-23T19:18:35.578Z,4.90
2019-04-23T19:21:08.921Z,6.15
2019-04-23T19:23:50.834Z,4.47
2019-04-23T19:26:15.806Z,5.22
2019-04-23T19:31:46.186Z,5.62
2019-04-23T19:36:54.758Z,5.95
2019-04-23T19:39:26.171Z,5.70
2019-04-23T19:42:00.597Z,7.42
2019-04-23T19:44:34.463Z,7.17
2019-04-23T19:47:19.376Z,5.05
2019-04-23T19:49:36.970Z,5.17
2019-04-23T19:52:07.972Z,4.83
2019-04-23T19:57:19.038Z,5.33
2019-04-23T20:02:45.229Z,5.17
2019-04-23T20:04:59.568Z,4.78
2019-04-23T20:07:43.722Z,5.83
2019-04-23T20:10:21.306Z,4.70
2019-04-23T20:12:40.041Z,4.85
2019-04-23T20:15:08.260Z,5.22
2019-04-23T20:17:53.055Z,5.80
2019-04-23T20:20:25.640Z,5.92
2019-04-23T20:26:05.598Z,6.37
2019-04-23T20:28:49.290Z,6.47
2019-04-23T20:31:57.238Z,5.33
2019-04-23T20:36:40.081Z,5.35
2019-04-23T20:39:17.274Z,6.15
2019-04-23T20:42:07.891Z,5.90
2019-04-23T20:47:08.585Z,7.90
2019-04-23T20:57:42.870Z,5.75
2019-04-23T21:03:04.968Z,6.25
2019-04-23T21:05:20.929Z,4.95
2019-04-23T21:18:15.666Z,5.78
2019-04-23T21:25:53.568Z,6.67
2019-04-23T21:28:40.085Z,6.40
2019-04-23T21:31:11.584Z,5.92
2019-04-23T21:33:59.322Z,6.00
2019-04-23T21:37:05.365Z,6.28
2019-04-23T21:40:04.698Z,6.07
2019-04-23T21:42:41.108Z,5.47
2019-04-23T21:45:09.008Z,7.57
2019-04-23T21:47:58.878Z,6.50
2019-04-23T21:50:25.718Z,6.53
2019-04-23T21:52:54.236Z,6.17
2019-04-23T21:55:32.828Z,5.83
2019-04-23T21:58:07.543Z,5.83
2019-04-23T22:00:38.950Z,6.37
2019-04-23T22:03:11.519Z,7.03
2019-04-23T22:05:58.286Z,7.50
2019-04-23T22:08:05.772Z,6.73
2019-04-23T22:10:57.315Z,6.43
2019-04-23T22:13:29.674Z,7.33
2019-04-23T22:16:10.796Z,6.60
2019-04-23T22:18:37.985Z,7.03
2019-04-23T22:21:05.074Z,6.60
2019-04-23T22:23:52.911Z,6.70
2019-04-23T22:26:16.261Z,6.93
2019-04-23T22:28:57.818Z,5.90
2019-04-23T22:31:31.761Z,6.80
2019-04-23T22:34:04.866Z,5.93
2019-04-23T22:36:28.613Z,6.20
2019-04-23T22:39:03.466Z,6.50
2019-04-23T22:41:41.654Z,7.07
2019-04-23T22:44:12.146Z,6.70
2019-04-23T22:46:53.702Z,6.90
2019-04-23T22:52:06.001Z,6.53
2019-04-23T22:54:31.771Z,6.70
2019-04-23T22:57:00.583Z,7.00
2019-04-23T22:59:51.809Z,7.77
2019-04-23T23:02:25.528Z,7.20
2019-04-23T23:05:07.454Z,7.67
2019-04-23T23:07:41.506Z,8.57
2019-04-23T23:12:53.244Z,7.33
2019-04-23T23:15:14.862Z,7.50
2019-04-23T23:17:58.439Z,6.90
2019-04-23T23:23:05.670Z,7.20
2019-04-23T23:28:22.695Z,7.83
2019-04-23T23:30:51.290Z,7.30
2019-04-23T23:33:17.253Z,7.33
2019-04-23T23:35:54.828Z,7.60
2019-04-23T23:38:27.430Z,7.50
2019-04-23T23:41:07.720Z,7.70
2019-04-23T23:46:17.293Z,7.90
2019-04-23T23:48:35.977Z,7.77
2019-04-23T23:51:21.824Z,8.13
2019-04-23T23:56:15.803Z,7.20
